createdAt,value
2023-03-16T00:02:13.218Z,6.22
2023-03-16T00:07:09.939Z,6.23
2023-03-16T00:12:04.980Z,6.27
2023-03-16T00:16:56.721Z,6.31
2023-03-16T00:21:50.233Z,6.33
2023-03-16T00:26:42.359Z,6.34
2023-03-16T00:31:34.704Z,6.40
2023-03-16T00:36:26.323Z,6.44
2023-03-16T00:41:17.945Z,6.47
2023-03-16T00:46:12.567Z,6.51
2023-03-16T00:51:06.711Z,6.55
2023-03-16T00:55:58.479Z,6.60
2023-03-16T01:00:51.370Z,6.65
2023-03-16T01:05:43.172Z,6.69
2023-03-16T01:10:36.218Z,6.72
2023-03-16T01:15:27.789Z,6.77
2023-03-16T01:20:19.901Z,6.82
2023-03-16T01:25:12.790Z,6.90
2023-03-16T01:30:06.213Z,6.97
2023-03-16T01:34:57.805Z,6.98
2023-03-16T01:39:50.305Z,7.02
2023-03-16T01:45:05.800Z,7.05
2023-03-16T01:49:57.641Z,7.10
2023-03-16T01:54:54.397Z,7.13
2023-03-16T01:59:56.533Z,7.16
2023-03-16T02:04:57.197Z,7.20
2023-03-16T02:09:51.789Z,7.23
2023-03-16T02:14:45.641Z,7.27
2023-03-16T02:20:14.478Z,7.32
2023-03-16T02:25:06.606Z,7.36
2023-03-16T02:30:17.057Z,7.42
2023-03-16T02:35:10.483Z,7.47
2023-03-16T02:40:15.466Z,7.52
2023-03-16T02:45:07.652Z,7.57
2023-03-16T02:49:59.337Z,7.61
2023-03-16T02:54:50.920Z,7.66
2023-03-16T02:59:42.565Z,7.70
2023-03-16T03:04:34.187Z,7.75
2023-03-16T03:09:25.803Z,7.79
2023-03-16T03:14:17.389Z,7.83
2023-03-16T03:24:19.303Z,7.89
2023-03-16T03:29:10.962Z,7.92
2023-03-16T03:34:06.718Z,7.96
2023-03-16T03:38:58.428Z,7.99
2023-03-16T03:43:50.050Z,8.03
2023-03-16T03:48:41.624Z,8.04
2023-03-16T03:53:33.314Z,8.08
2023-03-16T03:58:24.957Z,8.11
2023-03-16T04:03:17.865Z,8.14
2023-03-16T04:08:09.588Z,8.16
2023-03-16T04:13:01.278Z,8.16
2023-03-16T04:17:52.883Z,8.18
2023-03-16T04:22:44.782Z,8.22
2023-03-16T04:27:36.704Z,8.26
2023-03-16T04:32:28.318Z,8.28
2023-03-16T04:37:19.954Z,8.30
2023-03-16T04:42:12.526Z,8.32
2023-03-16T04:47:04.116Z,8.35
2023-03-16T04:51:55.867Z,8.37
2023-03-16T04:56:47.472Z,8.39
2023-03-16T05:01:39.203Z,8.41
2023-03-16T05:06:31.252Z,8.45
2023-03-16T05:11:22.890Z,8.45
2023-03-16T05:16:14.599Z,8.46
2023-03-16T05:21:06.456Z,8.49
2023-03-16T05:26:01.103Z,8.48
2023-03-16T05:30:52.848Z,8.45
2023-03-16T05:35:44.543Z,8.43
2023-03-16T05:40:37.402Z,8.39
2023-03-16T05:45:29.103Z,8.38
2023-03-16T05:50:20.828Z,8.33
2023-03-16T05:55:14.987Z,8.32
2023-03-16T06:00:18.345Z,8.33
2023-03-16T06:05:11.248Z,8.33
2023-03-16T06:10:03.205Z,8.31
2023-03-16T06:14:54.875Z,8.33
2023-03-16T06:19:46.612Z,8.33
2023-03-16T06:24:38.311Z,8.31
2023-03-16T06:29:31.169Z,8.30
2023-03-16T06:34:22.826Z,8.29
2023-03-16T06:39:14.664Z,8.25
2023-03-16T06:44:06.381Z,8.26
2023-03-16T06:48:58.011Z,8.25
2023-03-16T06:53:49.577Z,8.27
2023-03-16T06:58:41.871Z,8.28
2023-03-16T07:03:33.765Z,8.28
2023-03-16T07:08:25.646Z,8.27
2023-03-16T07:13:17.805Z,8.28
2023-03-16T07:18:09.402Z,8.30
2023-03-16T07:23:00.982Z,8.32
2023-03-16T07:27:52.742Z,8.34
2023-03-16T07:32:44.483Z,8.35
2023-03-16T07:37:37.118Z,8.35
2023-03-16T07:42:28.736Z,8.37
2023-03-16T07:47:20.500Z,8.39
2023-03-16T07:52:15.493Z,8.41
2023-03-16T07:57:08.205Z,8.42
2023-03-16T08:01:59.839Z,8.45
2023-03-16T08:07:00.303Z,8.50
2023-03-16T08:11:51.947Z,8.53
2023-03-16T08:16:43.674Z,8.55
2023-03-16T08:21:45.766Z,8.54
2023-03-16T08:26:48.100Z,8.58
2023-03-16T08:31:42.911Z,8.57
2023-03-16T08:36:34.641Z,8.62
2023-03-16T08:41:26.250Z,8.60
2023-03-16T08:46:17.863Z,8.64
2023-03-16T08:51:10.524Z,8.63
2023-03-16T08:56:07.278Z,8.66
2023-03-16T09:00:59.719Z,8.68
2023-03-16T09:05:51.386Z,8.74
2023-03-16T09:10:43.371Z,8.80
2023-03-16T09:15:35.575Z,8.85
2023-03-16T09:20:30.065Z,8.93
2023-03-16T09:25:22.782Z,9.06
2023-03-16T09:30:15.332Z,9.17
2023-03-16T09:35:07.371Z,9.25
2023-03-16T09:40:06.499Z,9.33
2023-03-16T09:45:26.250Z,9.46
2023-03-16T09:50:28.105Z,9.57
2023-03-16T09:55:31.499Z,9.64
2023-03-16T10:00:27.660Z,9.72
2023-03-16T10:05:24.282Z,9.74
2023-03-16T10:10:23.733Z,9.78
2023-03-16T10:15:19.523Z,9.83
2023-03-16T10:20:17.622Z,9.90
2023-03-16T10:25:28.065Z,9.96
2023-03-16T10:30:29.396Z,9.89
2023-03-16T10:35:24.045Z,9.89
2023-03-16T10:40:16.396Z,9.90
2023-03-16T10:45:25.548Z,9.95
2023-03-16T10:50:25.170Z,10.06
2023-03-16T10:55:24.055Z,10.15
2023-03-16T11:00:22.257Z,10.14
2023-03-16T11:05:17.979Z,10.10
2023-03-16T11:10:36.252Z,10.12
2023-03-16T11:15:45.752Z,10.15
2023-03-16T11:20:38.796Z,10.20
2023-03-16T11:25:51.887Z,10.32
2023-03-16T11:31:08.585Z,10.49
2023-03-16T11:36:39.057Z,10.77
2023-03-16T11:41:45.912Z,11.00
2023-03-16T11:46:42.781Z,11.10
2023-03-16T11:51:53.678Z,11.06
2023-03-16T11:56:54.851Z,10.96
2023-03-16T12:02:07.623Z,10.87
2023-03-16T12:07:30.332Z,10.84
2023-03-16T12:12:53.876Z,10.82
2023-03-16T12:17:46.752Z,10.87
2023-03-16T12:22:44.532Z,10.90
2023-03-16T12:27:40.104Z,10.88
2023-03-16T12:32:53.541Z,10.87
2023-03-16T12:37:57.634Z,10.84
2023-03-16T12:43:17.753Z,10.83
2023-03-16T12:48:21.220Z,10.78
2023-03-16T12:53:40.532Z,10.74
2023-03-16T12:58:33.065Z,10.68
2023-03-16T13:03:25.928Z,10.64
2023-03-16T13:08:21.057Z,10.59
2023-03-16T13:13:16.174Z,10.55
2023-03-16T13:18:20.222Z,10.52
2023-03-16T13:23:24.143Z,10.47
2023-03-16T13:28:17.287Z,10.44
2023-03-16T13:33:22.966Z,10.37
2023-03-16T13:38:16.574Z,10.38
2023-03-16T13:43:15.978Z,10.35
2023-03-16T13:48:13.235Z,10.29
2023-03-16T13:53:13.908Z,10.28
2023-03-16T13:58:05.964Z,10.29
2023-03-16T14:02:59.453Z,10.32
2023-03-16T14:07:52.260Z,10.31
2023-03-16T14:12:54.814Z,10.39
2023-03-16T14:17:47.012Z,10.43
2023-03-16T14:22:38.888Z,10.42
2023-03-16T14:27:39.842Z,10.40
2023-03-16T14:32:33.587Z,10.38
2023-03-16T14:37:35.775Z,10.33
2023-03-16T14:42:30.929Z,10.29
2023-03-16T14:47:33.806Z,10.28
2023-03-16T14:52:34.600Z,10.23
2023-03-16T14:57:27.075Z,10.19
2023-03-16T15:02:31.968Z,10.16
2023-03-16T15:07:31.400Z,10.14
2023-03-16T15:12:25.265Z,10.16
2023-03-16T15:17:16.910Z,10.14
2023-03-16T15:22:12.562Z,10.10
2023-03-16T15:27:04.485Z,10.08
2023-03-16T15:31:56.180Z,10.04
2023-03-16T15:36:47.877Z,9.99
2023-03-16T15:41:47.481Z,9.93
2023-03-16T15:46:39.548Z,9.86
2023-03-16T15:51:31.660Z,9.80
2023-03-16T15:56:30.003Z,9.76
2023-03-16T16:01:25.781Z,9.76
2023-03-16T16:06:17.581Z,9.73
2023-03-16T16:11:29.655Z,9.67
2023-03-16T16:16:21.349Z,9.63
2023-03-16T16:21:17.194Z,9.61
2023-03-16T16:26:21.753Z,9.62
2023-03-16T16:31:14.396Z,9.58
2023-03-16T16:36:12.203Z,9.59
2023-03-16T16:41:09.292Z,9.57
2023-03-16T16:46:04.883Z,9.57
2023-03-16T16:50:56.732Z,9.50
2023-03-16T16:55:48.652Z,9.44
2023-03-16T17:00:42.431Z,9.39
2023-03-16T17:05:34.346Z,9.34
2023-03-16T17:10:27.852Z,9.32
2023-03-16T17:15:28.485Z,9.30
2023-03-16T17:20:25.397Z,9.30
2023-03-16T17:25:17.292Z,9.29
2023-03-16T17:30:30.359Z,9.28
2023-03-16T17:35:22.726Z,9.29
2023-03-16T17:40:20.926Z,9.29
2023-03-16T17:45:22.385Z,9.27
2023-03-16T17:50:25.115Z,9.26
2023-03-16T17:55:20.443Z,9.22
2023-03-16T18:00:32.479Z,9.24
2023-03-16T18:05:29.646Z,9.21
2023-03-16T18:10:25.181Z,9.19
2023-03-16T18:15:18.722Z,9.19
2023-03-16T18:20:31.140Z,9.18
2023-03-16T18:25:36.317Z,9.18
2023-03-16T18:30:29.425Z,9.17
2023-03-16T18:35:21.559Z,9.19
2023-03-16T18:40:15.971Z,9.20
2023-03-16T18:45:11.798Z,9.23
2023-03-16T18:50:03.610Z,9.23
2023-03-16T18:54:55.800Z,9.21
2023-03-16T18:59:47.416Z,9.21
2023-03-16T19:04:39.783Z,9.19
2023-03-16T19:09:32.532Z,9.19
2023-03-16T19:14:31.698Z,9.20
2023-03-16T19:19:24.850Z,9.18
2023-03-16T19:24:44.136Z,9.20
2023-03-16T19:29:36.416Z,9.17
2023-03-16T19:34:28.676Z,9.18
2023-03-16T19:39:20.975Z,9.20
2023-03-16T19:44:17.958Z,9.22
2023-03-16T19:49:16.896Z,9.23
2023-03-16T19:54:21.253Z,9.24
2023-03-16T19:59:12.948Z,9.22
2023-03-16T20:04:04.748Z,9.22
2023-03-16T20:08:56.486Z,9.21
2023-03-16T20:13:49.088Z,9.23
2023-03-16T20:18:40.669Z,9.21
2023-03-16T20:23:32.686Z,9.23
2023-03-16T20:28:32.888Z,9.25
2023-03-16T20:33:26.067Z,9.23
2023-03-16T20:38:17.809Z,9.24
2023-03-16T20:43:23.979Z,9.27
2023-03-16T20:48:15.893Z,9.27
2023-03-16T20:53:08.672Z,9.26
2023-03-16T20:58:01.448Z,9.26
2023-03-16T21:02:54.974Z,9.24
2023-03-16T21:07:46.876Z,9.25
2023-03-16T21:12:42.280Z,9.25
2023-03-16T21:17:37.891Z,9.24
2023-03-16T21:22:37.617Z,9.23
2023-03-16T21:27:32.570Z,9.22
2023-03-16T21:32:27.268Z,9.20
2023-03-16T21:37:28.454Z,9.20
2023-03-16T21:42:20.494Z,9.19
2023-03-16T21:47:29.146Z,9.19
2023-03-16T21:52:31.258Z,9.19
2023-03-16T21:57:23.143Z,9.18
2023-03-16T22:02:26.117Z,9.17
2023-03-16T22:07:18.481Z,9.13
2023-03-16T22:12:14.036Z,9.11
2023-03-16T22:17:07.510Z,9.08
2023-03-16T22:21:59.508Z,9.04
2023-03-16T22:26:52.033Z,9.01
2023-03-16T22:31:43.725Z,9.00
2023-03-16T22:36:35.484Z,8.99
2023-03-16T22:41:29.200Z,9.03
2023-03-16T22:46:24.377Z,9.05
2023-03-16T22:51:24.154Z,9.07
2023-03-16T22:56:15.975Z,9.09
2023-03-16T23:01:17.893Z,9.12
2023-03-16T23:06:21.958Z,9.11
2023-03-16T23:11:19.248Z,9.11
2023-03-16T23:16:21.345Z,9.09
2023-03-16T23:21:15.639Z,9.09
2023-03-16T23:26:20.278Z,9.08
2023-03-16T23:31:14.902Z,9.11
2023-03-16T23:36:14.569Z,9.10
2023-03-16T23:41:06.934Z,9.11
2023-03-16T23:45:58.778Z,9.12
2023-03-16T23:50:54.894Z,9.12
2023-03-16T23:55:48.302Z,9.13
